Time;durP1;ratioP1;P1;durP2;ratioP2;P2;SDS_P1;SDS_P2;PMS_P1;PMS_P2;Temp;Humidity;BMP_temperature;BMP_pressure;BME280_temperature;BME280_humidity;BME280_pressure;Samples;Min_cycle;Max_cycle;Signal;HPM_P1;HPM_P2
2022/07/06 00:00:38;;;;;;;0.15;0.15;;;15.10;99.90;;;;;;6181346;23;20019;-81
2022/07/06 00:03:03;;;;;;;0.20;0.20;;;15.10;99.90;;;;;;6209767;23;20032;-81
2022/07/06 00:05:29;;;;;;;0.20;0.20;;;15.00;99.90;;;;;;6208350;23;20013;-80
2022/07/06 00:07:54;;;;;;;0.20;0.20;;;15.10;99.90;;;;;;6209810;23;20023;-81
2022/07/06 00:10:20;;;;;;;0.20;0.20;;;15.10;99.90;;;;;;6211160;23;20017;-81
2022/07/06 00:12:46;;;;;;;0.20;0.20;;;15.10;99.90;;;;;;6181561;23;20024;-81
2022/07/06 00:15:11;;;;;;;0.20;0.20;;;15.10;99.90;;;;;;6181498;23;20023;-80
2022/07/06 00:17:37;;;;;;;0.20;0.20;;;15.00;99.90;;;;;;6183687;23;20042;-81
2022/07/06 00:20:03;;;;;;;0.20;0.20;;;15.00;99.90;;;;;;6209167;23;20041;-82
2022/07/06 00:22:28;;;;;;;0.10;0.10;;;15.00;99.90;;;;;;6183745;23;20013;-82
2022/07/06 00:24:54;;;;;;;0.10;0.10;;;15.10;99.90;;;;;;6208443;23;20110;-80
2022/07/06 00:27:20;;;;;;;0.20;0.20;;;15.00;99.90;;;;;;6182620;23;20317;-81
2022/07/06 00:29:45;;;;;;;0.20;0.20;;;15.00;99.90;;;;;;6207054;23;20036;-82
2022/07/06 00:32:11;;;;;;;0.10;0.10;;;15.30;99.90;;;;;;6182585;23;20457;-80
2022/07/06 00:34:39;;;;;;;0.10;0.10;;;15.00;99.90;;;;;;6180954;23;20192;-81
2022/07/06 00:37:06;;;;;;;0.20;0.20;;;15.00;99.90;;;;;;6182615;23;20028;-81
2022/07/06 00:39:32;;;;;;;0.10;0.10;;;14.90;99.90;;;;;;6182721;23;20507;-80
2022/07/06 00:41:58;;;;;;;0.20;0.20;;;15.00;99.90;;;;;;6208489;23;20425;-80
2022/07/06 00:44:24;;;;;;;0.20;0.20;;;14.90;99.90;;;;;;6181851;23;20028;-81
2022/07/06 00:46:49;;;;;;;0.10;0.10;;;14.90;99.90;;;;;;6210207;23;20376;-81
2022/07/06 00:50:13;;;;;;;0.17;0.17;;;14.90;99.90;;;;;;6180822;23;20322;-81
2022/07/06 00:52:01;;;;;;;0.20;0.20;;;15.00;99.90;;;;;;6182684;23;20406;-81
2022/07/06 00:54:30;;;;;;;0.20;0.20;;;14.90;99.90;;;;;;6182210;23;20017;-80
2022/07/06 00:56:56;;;;;;;0.15;0.15;;;15.00;99.90;;;;;;6182637;23;20016;-81
2022/07/06 00:59:23;;;;;;;0.20;0.20;;;14.90;99.90;;;;;;6207972;23;20024;-81
2022/07/06 01:01:49;;;;;;;0.10;0.10;;;14.90;99.90;;;;;;6208158;23;20038;-80
2022/07/06 01:04:14;;;;;;;0.20;0.20;;;14.90;99.90;;;;;;6181840;23;20017;-80
2022/07/06 01:06:41;;;;;;;0.20;0.20;;;14.90;99.90;;;;;;6183396;23;20118;-80
2022/07/06 01:09:06;;;;;;;0.20;0.20;;;14.90;99.90;;;;;;6181369;23;20017;-80
2022/07/06 01:11:32;;;;;;;0.20;0.20;;;14.90;99.90;;;;;;6210246;23;20024;-80
2022/07/06 01:14:00;;;;;;;0.20;0.20;;;14.90;99.90;;;;;;6209102;23;20052;-81
2022/07/06 01:16:26;;;;;;;0.17;0.17;;;14.90;99.90;;;;;;6181129;23;20017;-81
2022/07/06 01:18:51;;;;;;;0.10;0.10;;;14.90;99.90;;;;;;6181487;23;20012;-81
2022/07/06 01:21:17;;;;;;;0.20;0.20;;;15.00;99.90;;;;;;6182670;23;20044;-80
2022/07/06 01:23:45;;;;;;;0.10;0.10;;;14.90;99.90;;;;;;6208245;23;20012;-81
2022/07/06 01:26:17;;;;;;;0.20;0.20;;;14.90;99.90;;;;;;6208976;23;20023;-81
2022/07/06 01:28:43;;;;;;;0.15;0.15;;;14.90;99.90;;;;;;6180128;23;20036;-81
2022/07/06 01:31:19;;;;;;;0.10;0.10;;;14.90;99.90;;;;;;6206961;23;20017;-80
2022/07/06 01:33:45;;;;;;;0.13;0.13;;;14.80;99.90;;;;;;6181677;23;20043;-80
2022/07/06 01:36:11;;;;;;;0.10;0.10;;;14.80;99.90;;;;;;6182425;23;20023;-83
2022/07/06 01:38:48;;;;;;;0.20;0.20;;;14.90;99.90;;;;;;6206879;23;20028;-82
2022/07/06 01:41:14;;;;;;;0.10;0.10;;;14.80;99.90;;;;;;6209998;23;20031;-81
2022/07/06 01:43:40;;;;;;;0.10;0.10;;;14.80;99.90;;;;;;6181066;23;20012;-81
2022/07/06 01:46:06;;;;;;;0.13;0.13;;;14.80;99.90;;;;;;6207900;23;20042;-80
2022/07/06 01:48:31;;;;;;;0.10;0.10;;;14.70;99.90;;;;;;6181003;23;20021;-81
2022/07/06 01:50:57;;;;;;;0.20;0.20;;;14.90;99.90;;;;;;6208580;23;20008;-81
2022/07/06 01:53:22;;;;;;;0.10;0.10;;;14.70;99.90;;;;;;6209248;23;20039;-81
2022/07/06 01:55:49;;;;;;;0.20;0.20;;;14.70;99.90;;;;;;6208902;23;20084;-81
2022/07/06 01:58:14;;;;;;;0.20;0.20;;;14.80;99.90;;;;;;6208737;23;20013;-82
2022/07/06 02:00:41;;;;;;;0.10;0.10;;;14.70;99.90;;;;;;6181668;23;20071;-80
2022/07/06 02:03:07;;;;;;;0.10;0.10;;;14.80;99.90;;;;;;6209696;23;20017;-80
2022/07/06 02:05:32;;;;;;;0.20;0.20;;;14.80;99.90;;;;;;6181945;23;20023;-81
2022/07/06 02:07:58;;;;;;;0.20;0.20;;;14.80;99.90;;;;;;6183576;23;20020;-79
2022/07/06 02:10:23;;;;;;;0.10;0.10;;;14.80;99.90;;;;;;6210237;23;20048;-80
2022/07/06 02:12:49;;;;;;;0.10;0.10;;;14.80;99.90;;;;;;6182791;23;20035;-82
2022/07/06 02:15:14;;;;;;;0.20;0.20;;;14.70;99.90;;;;;;6183403;23;20030;-80
2022/07/06 02:17:40;;;;;;;0.10;0.10;;;14.90;99.90;;;;;;6183477;23;20036;-80
2022/07/06 02:20:06;;;;;;;0.20;0.20;;;14.70;99.90;;;;;;6208883;23;20097;-80
2022/07/06 02:22:35;;;;;;;0.20;0.20;;;14.80;99.90;;;;;;6209514;23;20039;-81
2022/07/06 02:25:00;;;;;;;0.20;0.20;;;14.80;99.90;;;;;;6182350;23;20092;-80
2022/07/06 02:27:26;;;;;;;0.20;0.20;;;14.70;99.90;;;;;;6181979;23;20075;-80
2022/07/06 02:29:51;;;;;;;0.13;0.13;;;14.70;99.90;;;;;;6180761;23;20092;-80
2022/07/06 02:32:17;;;;;;;0.20;0.20;;;14.70;99.90;;;;;;6185426;23;20013;-80
2022/07/06 02:34:43;;;;;;;0.20;0.20;;;14.70;99.90;;;;;;6182391;23;20056;-81
2022/07/06 02:37:09;;;;;;;0.20;0.20;;;14.60;99.90;;;;;;6184048;23;20016;-80
2022/07/06 02:39:34;;;;;;;0.10;0.10;;;14.60;99.90;;;;;;6210934;23;20009;-83
2022/07/06 02:42:00;;;;;;;0.20;0.20;;;14.50;99.90;;;;;;6211060;23;20017;-80
2022/07/06 02:44:25;;;;;;;0.20;0.20;;;14.60;99.90;;;;;;6210693;23;20031;-80
2022/07/06 02:46:51;;;;;;;0.20;0.20;;;14.40;99.90;;;;;;6212564;23;20016;-81
2022/07/06 02:49:17;;;;;;;0.20;0.20;;;14.50;99.90;;;;;;6182746;23;20013;-80
2022/07/06 02:51:42;;;;;;;0.20;0.20;;;14.40;99.90;;;;;;6212025;23;20008;-81
2022/07/06 02:54:08;;;;;;;0.20;0.20;;;14.40;99.90;;;;;;6182715;23;20024;-81
2022/07/06 02:56:33;;;;;;;0.20;0.20;;;14.40;99.90;;;;;;6210436;23;20370;-81
2022/07/06 02:58:59;;;;;;;0.20;0.20;;;14.40;99.90;;;;;;6210493;23;20035;-81
2022/07/06 03:01:25;;;;;;;0.20;0.20;;;14.30;99.90;;;;;;6209754;23;20434;-80
2022/07/06 03:03:50;;;;;;;0.20;0.20;;;14.30;99.90;;;;;;6211558;23;20008;-80
2022/07/06 03:06:16;;;;;;;0.10;0.10;;;14.50;99.90;;;;;;6184983;23;20063;-80
2022/07/06 03:08:42;;;;;;;0.20;0.20;;;14.20;99.90;;;;;;6182430;23;20016;-80
2022/07/06 03:11:08;;;;;;;0.20;0.20;;;14.20;99.90;;;;;;6185156;23;20013;-81
2022/07/06 03:13:34;;;;;;;0.20;0.20;;;14.10;99.90;;;;;;6210754;23;20039;-81
2022/07/06 03:16:00;;;;;;;0.20;0.20;;;14.10;99.90;;;;;;6183489;23;20108;-80
2022/07/06 03:18:26;;;;;;;0.20;0.20;;;14.10;99.90;;;;;;6182078;23;20100;-81
2022/07/06 03:20:54;;;;;;;0.10;0.10;;;14.10;99.90;;;;;;6184520;23;20326;-80
2022/07/06 03:23:20;;;;;;;0.20;0.20;;;14.10;99.90;;;;;;6183131;23;20020;-81
2022/07/06 03:25:46;;;;;;;0.20;0.20;;;14.00;99.90;;;;;;6183018;23;20487;-80
2022/07/06 03:28:12;;;;;;;0.20;0.20;;;14.00;99.90;;;;;;6209887;23;20067;-82
2022/07/06 03:30:37;;;;;;;0.20;0.20;;;14.10;99.90;;;;;;6183185;23;20420;-81
2022/07/06 03:33:03;;;;;;;0.20;0.20;;;14.00;99.90;;;;;;6184347;23;20021;-80
2022/07/06 03:35:29;;;;;;;0.20;0.20;;;13.90;99.90;;;;;;6182833;23;20013;-80
2022/07/06 03:37:54;;;;;;;0.20;0.20;;;14.10;99.90;;;;;;6209715;23;20031;-80
2022/07/06 03:40:20;;;;;;;0.13;0.13;;;13.90;99.90;;;;;;6184330;23;20485;-80
2022/07/06 03:42:45;;;;;;;0.13;0.13;;;13.90;99.90;;;;;;6182500;23;20132;-81
2022/07/06 03:45:11;;;;;;;0.20;0.20;;;13.90;99.90;;;;;;6184002;23;20401;-81
2022/07/06 03:47:40;;;;;;;0.20;0.20;;;13.90;99.90;;;;;;6209789;23;20763;-80
2022/07/06 03:50:06;;;;;;;0.10;0.10;;;13.90;99.90;;;;;;6184151;23;20034;-80
2022/07/06 03:52:32;;;;;;;0.10;0.10;;;13.90;99.90;;;;;;6183349;23;20014;-80
2022/07/06 03:54:57;;;;;;;0.20;0.20;;;13.80;99.90;;;;;;6210224;23;20108;-81
2022/07/06 03:57:26;;;;;;;0.20;0.20;;;13.80;99.90;;;;;;6211343;23;20175;-80
2022/07/06 03:59:52;;;;;;;0.20;0.20;;;13.80;99.90;;;;;;6182388;23;20040;-80
2022/07/06 04:02:17;;;;;;;0.15;0.15;;;13.80;99.90;;;;;;6183530;23;20017;-80
2022/07/06 04:04:43;;;;;;;0.20;0.20;;;13.70;99.90;;;;;;6182632;23;20083;-80
2022/07/06 04:07:08;;;;;;;0.15;0.15;;;13.70;99.90;;;;;;6183643;23;20086;-81
2022/07/06 04:09:34;;;;;;;0.10;0.10;;;13.70;99.90;;;;;;6180924;23;20028;-81
2022/07/06 04:12:00;;;;;;;0.10;0.10;;;13.70;99.90;;;;;;6183646;23;20020;-80
2022/07/06 04:14:27;;;;;;;0.20;0.20;;;13.80;99.90;;;;;;6182672;23;20016;-81
2022/07/06 04:16:55;;;;;;;0.20;0.20;;;13.70;99.90;;;;;;6210083;23;20017;-80
2022/07/06 04:19:21;;;;;;;0.10;0.10;;;13.70;99.90;;;;;;6182762;23;20024;-81
2022/07/06 04:21:49;;;;;;;0.20;0.20;;;13.70;99.90;;;;;;6184145;23;20012;-80
2022/07/06 04:24:15;;;;;;;0.10;0.10;;;13.80;99.90;;;;;;6182310;23;20040;-81
2022/07/06 04:27:03;;;;;;;0.10;0.10;;;13.80;99.90;;;;;;6181894;23;20025;-81
2022/07/06 04:29:29;;;;;;;0.10;0.10;;;13.80;99.90;;;;;;6182050;23;20119;-81
2022/07/06 04:31:54;;;;;;;0.10;0.10;;;13.80;99.90;;;;;;6182626;23;20021;-81
2022/07/06 04:34:20;;;;;;;0.20;0.20;;;13.80;99.90;;;;;;6182331;23;20016;-80
2022/07/06 04:36:46;;;;;;;0.20;0.20;;;13.80;99.90;;;;;;6182257;23;20027;-81
2022/07/06 04:39:12;;;;;;;0.10;0.10;;;13.80;99.90;;;;;;6183449;23;20341;-81
2022/07/06 04:41:37;;;;;;;0.10;0.10;;;13.80;99.90;;;;;;6210091;23;20060;-80
2022/07/06 04:44:03;;;;;;;0.20;0.20;;;13.90;99.90;;;;;;6210011;23;20017;-81
2022/07/06 04:46:29;;;;;;;0.10;0.10;;;13.80;99.90;;;;;;6184415;23;20027;-81
2022/07/06 04:48:55;;;;;;;0.10;0.10;;;13.80;99.90;;;;;;6208500;23;20013;-82
2022/07/06 04:51:20;;;;;;;0.10;0.10;;;13.80;99.90;;;;;;6210188;23;20027;-82
2022/07/06 04:53:46;;;;;;;0.10;0.10;;;13.80;99.90;;;;;;6209453;23;20016;-81
2022/07/06 04:56:12;;;;;;;0.10;0.10;;;13.80;99.90;;;;;;6182896;23;20044;-80
2022/07/06 04:58:38;;;;;;;0.10;0.10;;;13.80;99.90;;;;;;6209333;23;20493;-80
2022/07/06 05:01:03;;;;;;;0.10;0.10;;;13.80;99.90;;;;;;6182646;23;20115;-80
2022/07/06 05:03:29;;;;;;;0.20;0.20;;;13.80;99.90;;;;;;6183573;23;20023;-81
2022/07/06 05:05:54;;;;;;;0.10;0.10;;;13.90;99.90;;;;;;6183885;23;20082;-80
2022/07/06 05:08:20;;;;;;;0.10;0.10;;;13.90;99.90;;;;;;6208586;23;20321;-81
2022/07/06 05:10:47;;;;;;;0.10;0.10;;;13.90;99.90;;;;;;6183290;23;20072;-80
2022/07/06 05:13:16;;;;;;;0.10;0.10;;;14.00;99.90;;;;;;6208539;23;20271;-81
2022/07/06 05:15:41;;;;;;;0.20;0.20;;;14.10;99.90;;;;;;6209051;23;20017;-81
2022/07/06 05:18:07;;;;;;;0.20;0.20;;;14.10;99.90;;;;;;6183272;23;20013;-81
2022/07/06 05:20:33;;;;;;;0.10;0.10;;;14.20;99.90;;;;;;6183456;23;20032;-81
2022/07/06 05:22:58;;;;;;;0.10;0.10;;;14.20;99.90;;;;;;6207650;23;20116;-81
2022/07/06 05:25:24;;;;;;;0.10;0.10;;;14.20;99.90;;;;;;6183319;23;20091;-81
2022/07/06 05:27:49;;;;;;;0.10;0.10;;;14.30;99.90;;;;;;6197402;23;20530;-80
2022/07/06 05:30:15;;;;;;;0.10;0.10;;;14.30;99.90;;;;;;6209257;23;20023;-81
2022/07/06 05:32:41;;;;;;;0.10;0.10;;;14.40;99.90;;;;;;6183042;23;20027;-81
2022/07/06 05:35:07;;;;;;;0.10;0.10;;;14.50;99.90;;;;;;6209444;23;20021;-81
2022/07/06 05:37:33;;;;;;;0.10;0.10;;;14.50;99.90;;;;;;6208242;23;20099;-81
2022/07/06 05:40:14;;;;;;;0.13;0.13;;;14.60;99.90;;;;;;6180702;23;20380;-81
2022/07/06 05:42:40;;;;;;;0.20;0.20;;;14.60;99.90;;;;;;6210464;23;20414;-81
2022/07/06 05:45:08;;;;;;;0.10;0.10;;;14.70;99.90;;;;;;6181867;23;20052;-81
2022/07/06 05:50:18;;;;;;;0.13;0.13;;;14.80;99.90;;;;;;6206601;23;20016;-79
2022/07/06 05:52:56;;;;;;;0.10;0.10;;;14.80;99.90;;;;;;6182349;23;20314;-82
2022/07/06 05:55:24;;;;;;;0.10;0.10;;;14.80;99.90;;;;;;6209818;23;20016;-81
2022/07/06 05:57:50;;;;;;;0.20;0.20;;;14.80;99.90;;;;;;6181862;23;20032;-82
2022/07/06 06:00:16;;;;;;;0.20;0.20;;;14.80;99.90;;;;;;6208564;23;20048;-82
2022/07/06 06:02:43;;;;;;;0.10;0.10;;;14.80;99.90;;;;;;6209299;23;20020;-81
2022/07/06 06:05:10;;;;;;;0.10;0.10;;;14.80;99.90;;;;;;6208895;23;20046;-82
2022/07/06 06:07:37;;;;;;;0.13;0.13;;;14.80;99.90;;;;;;6181268;23;20016;-81
2022/07/06 06:10:10;;;;;;;0.10;0.10;;;14.90;99.90;;;;;;6207510;23;20024;-80
2022/07/06 06:12:36;;;;;;;0.10;0.10;;;14.90;99.90;;;;;;6209204;23;20055;-80
2022/07/06 06:15:02;;;;;;;0.20;0.20;;;14.90;99.90;;;;;;6182624;23;20322;-81
2022/07/06 06:17:28;;;;;;;0.17;0.17;;;14.90;99.90;;;;;;6209411;23;20023;-81
2022/07/06 06:19:54;;;;;;;0.20;0.20;;;14.90;99.90;;;;;;6180010;23;20009;-80
2022/07/06 06:22:22;;;;;;;0.10;0.10;;;15.00;99.90;;;;;;6209068;23;20076;-81
2022/07/06 06:24:47;;;;;;;0.10;0.10;;;15.00;99.90;;;;;;6208170;23;20352;-80
2022/07/06 06:27:13;;;;;;;0.20;0.20;;;15.10;99.90;;;;;;6207596;23;20115;-81
2022/07/06 06:29:39;;;;;;;0.10;0.10;;;15.10;99.90;;;;;;6206330;23;20030;-80
2022/07/06 06:32:07;;;;;;;0.10;0.10;;;15.30;99.90;;;;;;6182345;23;20405;-80
2022/07/06 06:34:33;;;;;;;0.20;0.20;;;15.20;99.90;;;;;;6207288;23;20156;-74
2022/07/06 06:36:59;;;;;;;0.20;0.20;;;15.20;99.90;;;;;;6209973;23;20151;-74
2022/07/06 06:39:26;;;;;;;0.10;0.10;;;15.20;99.90;;;;;;6206117;23;20119;-74
2022/07/06 06:41:52;;;;;;;0.20;0.20;;;15.20;99.90;;;;;;6209014;23;20359;-74
2022/07/06 06:44:17;;;;;;;0.10;0.10;;;15.30;99.90;;;;;;6180316;23;20040;-74
2022/07/06 06:46:43;;;;;;;0.20;0.20;;;15.30;99.90;;;;;;6209047;23;20112;-74
2022/07/06 06:49:11;;;;;;;0.20;0.20;;;15.30;99.90;;;;;;6182087;23;20017;-74
2022/07/06 06:51:38;;;;;;;0.15;0.15;;;15.30;99.90;;;;;;6183134;23;20023;-74
2022/07/06 06:54:04;;;;;;;0.10;0.10;;;15.40;99.90;;;;;;6207268;23;20587;-74
2022/07/06 06:56:30;;;;;;;0.20;0.20;;;15.50;99.90;;;;;;6209324;23;20158;-74
2022/07/06 06:58:58;;;;;;;0.10;0.10;;;15.60;99.90;;;;;;6208990;23;20013;-74
2022/07/06 07:01:24;;;;;;;0.20;0.20;;;15.70;99.90;;;;;;6208625;23;20545;-74
2022/07/06 07:03:51;;;;;;;0.10;0.10;;;15.80;99.90;;;;;;6208332;23;20017;-74
2022/07/06 07:06:17;;;;;;;0.10;0.10;;;15.90;99.90;;;;;;6208611;23;20012;-76
2022/07/06 07:08:42;;;;;;;0.10;0.10;;;16.00;99.90;;;;;;6181149;23;20348;-74
2022/07/06 07:11:13;;;;;;;0.20;0.20;;;16.10;99.90;;;;;;6208634;23;20016;-74
2022/07/06 07:13:38;;;;;;;0.10;0.10;;;16.20;99.90;;;;;;6181071;23;20025;-75
2022/07/06 07:16:10;;;;;;;0.20;0.20;;;16.20;99.90;;;;;;6180604;23;20096;-73
2022/07/06 07:18:36;;;;;;;0.10;0.10;;;16.30;99.90;;;;;;6181113;23;20413;-74
2022/07/06 07:21:02;;;;;;;0.10;0.10;;;16.40;99.90;;;;;;6184461;23;20024;-75
2022/07/06 07:23:28;;;;;;;0.10;0.10;;;16.50;99.90;;;;;;6209651;23;20016;-74
2022/07/06 07:25:53;;;;;;;0.10;0.10;;;16.60;99.90;;;;;;6184587;23;20442;-75
2022/07/06 07:28:19;;;;;;;0.10;0.10;;;16.50;99.90;;;;;;6183111;23;20016;-74
2022/07/06 07:30:44;;;;;;;0.10;0.10;;;16.50;99.90;;;;;;6183582;23;20021;-75
2022/07/06 07:33:10;;;;;;;0.15;0.15;;;16.60;99.90;;;;;;6184066;23;20147;-75
2022/07/06 07:35:36;;;;;;;0.10;0.10;;;16.60;99.90;;;;;;6210234;23;20013;-75
2022/07/06 07:38:02;;;;;;;0.10;0.10;;;16.50;99.90;;;;;;6209353;23;20032;-75
2022/07/06 07:40:28;;;;;;;0.10;0.10;;;16.50;99.90;;;;;;6181217;23;20020;-75
2022/07/06 07:42:53;;;;;;;0.20;0.20;;;16.50;99.90;;;;;;6180828;23;20017;-75
2022/07/06 07:45:19;;;;;;;0.10;0.10;;;16.40;99.90;;;;;;6210860;23;20091;-74
2022/07/06 07:47:45;;;;;;;0.20;0.20;;;16.60;99.90;;;;;;6210487;23;20045;-75
2022/07/06 07:50:10;;;;;;;0.20;0.20;;;16.50;99.90;;;;;;6210723;23;20092;-75
2022/07/06 07:52:36;;;;;;;0.20;0.20;;;16.60;99.90;;;;;;6183507;23;20324;-75
2022/07/06 07:55:02;;;;;;;0.10;0.10;;;16.70;99.90;;;;;;6183200;23;20019;-74
2022/07/06 07:57:28;;;;;;;0.10;0.10;;;16.80;99.90;;;;;;6209046;23;20094;-74
2022/07/06 07:59:57;;;;;;;0.20;0.20;;;16.80;99.90;;;;;;6209842;23;20075;-74
2022/07/06 08:02:22;;;;;;;0.10;0.10;;;16.80;99.90;;;;;;6183978;23;20019;-75
2022/07/06 08:04:48;;;;;;;0.20;0.20;;;16.90;99.90;;;;;;6182515;23;20099;-77
2022/07/06 08:07:14;;;;;;;0.10;0.10;;;17.00;99.90;;;;;;6211127;23;20017;-75
2022/07/06 08:09:42;;;;;;;0.10;0.10;;;17.00;99.90;;;;;;6182385;23;20070;-75
2022/07/06 08:12:08;;;;;;;0.20;0.20;;;17.10;99.90;;;;;;6208918;23;20317;-75
2022/07/06 08:14:34;;;;;;;0.20;0.20;;;17.10;99.90;;;;;;6180740;23;20680;-76
2022/07/06 08:17:00;;;;;;;0.10;0.10;;;17.20;99.90;;;;;;6210827;23;20020;-76
2022/07/06 08:19:25;;;;;;;0.10;0.10;;;17.20;99.90;;;;;;6208773;23;20504;-74
2022/07/06 08:21:51;;;;;;;0.20;0.20;;;17.10;99.90;;;;;;6210251;23;20083;-74
2022/07/06 08:24:17;;;;;;;0.10;0.10;;;17.10;99.90;;;;;;6209079;23;20067;-74
2022/07/06 08:26:43;;;;;;;0.10;0.10;;;17.30;99.90;;;;;;6208211;23;20025;-74
2022/07/06 08:29:08;;;;;;;0.20;0.20;;;17.20;99.90;;;;;;6208268;23;20024;-74
2022/07/06 08:31:34;;;;;;;0.20;0.20;;;17.20;99.90;;;;;;6210641;23;20016;-74
2022/07/06 08:34:01;;;;;;;0.13;0.13;;;17.30;99.90;;;;;;6209939;23;20380;-75
2022/07/06 08:36:26;;;;;;;0.10;0.10;;;17.30;99.90;;;;;;6184176;23;20445;-74
2022/07/06 08:38:52;;;;;;;0.10;0.10;;;17.40;99.90;;;;;;6183296;23;20024;-75
2022/07/06 08:41:20;;;;;;;0.10;0.10;;;17.40;99.90;;;;;;6210842;23;20088;-74
2022/07/06 08:43:46;;;;;;;0.20;0.20;;;17.40;99.90;;;;;;6182725;23;20017;-75
2022/07/06 08:46:13;;;;;;;0.20;0.20;;;17.50;99.90;;;;;;6183271;23;20071;-74
2022/07/06 08:48:40;;;;;;;0.20;0.20;;;17.50;99.90;;;;;;6209592;23;20021;-74
2022/07/06 08:51:06;;;;;;;0.10;0.10;;;17.50;99.90;;;;;;6183760;23;20044;-78
2022/07/06 08:53:33;;;;;;;0.10;0.10;;;17.60;99.90;;;;;;6180669;23;20643;-74
2022/07/06 08:55:59;;;;;;;0.20;0.20;;;17.60;99.90;;;;;;6210794;23;20058;-74
2022/07/06 08:58:28;;;;;;;0.10;0.10;;;17.60;99.90;;;;;;6182327;23;20013;-75
2022/07/06 09:00:57;;;;;;;0.10;0.10;;;17.60;99.90;;;;;;6209354;23;20024;-74
2022/07/06 09:03:24;;;;;;;0.10;0.10;;;17.70;99.90;;;;;;6182460;23;20025;-74
2022/07/06 09:05:51;;;;;;;0.20;0.20;;;17.70;99.90;;;;;;6210433;23;20064;-74
2022/07/06 09:08:18;;;;;;;0.20;0.20;;;17.80;99.90;;;;;;6209207;23;20023;-74
2022/07/06 09:10:44;;;;;;;0.10;0.10;;;17.90;99.90;;;;;;6184065;23;20020;-74
2022/07/06 09:13:12;;;;;;;0.10;0.10;;;17.90;99.90;;;;;;6209839;23;20008;-74
2022/07/06 09:15:41;;;;;;;0.20;0.20;;;17.90;99.90;;;;;;6209904;23;20031;-74
2022/07/06 09:18:09;;;;;;;;;;;17.90;99.90;;;;;;6183818;23;20020;-74
2022/07/06 09:20:35;;;;;;;0.20;0.20;;;17.90;99.90;;;;;;6210209;23;20381;-73
2022/07/06 09:23:05;;;;;;;0.17;0.17;;;17.90;99.90;;;;;;6209188;23;20012;-73
2022/07/06 09:25:32;;;;;;;0.20;0.20;;;17.90;99.90;;;;;;6210661;23;20059;-74
2022/07/06 09:27:58;;;;;;;0.10;0.10;;;17.90;99.90;;;;;;6206832;23;20278;-74
2022/07/06 09:30:26;;;;;;;0.20;0.20;;;17.90;99.90;;;;;;6203578;23;20028;-74
2022/07/06 09:32:54;;;;;;;0.20;0.20;;;17.90;99.90;;;;;;6179984;23;20032;-74
2022/07/06 09:35:24;;;;;;;0.10;0.10;;;17.80;99.90;;;;;;6180142;23;20016;-73
2022/07/06 09:38:04;;;;;;;0.17;0.17;;;17.80;99.90;;;;;;6208777;23;20119;-73
2022/07/06 09:40:32;;;;;;;0.13;0.13;;;17.90;99.90;;;;;;6182650;23;20052;-73
2022/07/06 09:43:24;;;;;;;0.10;0.10;;;18.00;99.90;;;;;;6207853;23;20023;-74
2022/07/06 09:45:52;;;;;;;0.10;0.10;;;18.10;99.90;;;;;;6209740;23;20341;-74
2022/07/06 09:48:22;;;;;;;0.20;0.20;;;18.10;99.90;;;;;;6183158;23;20100;-74
2022/07/06 09:51:08;;;;;;;0.10;0.10;;;18.10;99.90;;;;;;6208741;23;20078;-73
2022/07/06 09:53:35;;;;;;;0.10;0.10;;;18.20;99.90;;;;;;6147891;23;20024;-73
2022/07/06 09:56:01;;;;;;;0.10;0.10;;;18.10;99.90;;;;;;6209813;23;20040;-74
2022/07/06 09:58:28;;;;;;;0.20;0.20;;;18.30;99.90;;;;;;6177629;23;20024;-74
2022/07/06 10:00:54;;;;;;;0.17;0.17;;;18.30;99.90;;;;;;6183158;23;20331;-74
2022/07/06 10:03:19;;;;;;;0.10;0.10;;;18.30;99.90;;;;;;6208615;23;20027;-74
2022/07/06 10:05:47;;;;;;;0.10;0.10;;;18.30;99.90;;;;;;6208521;23;20020;-73
2022/07/06 10:08:14;;;;;;;0.20;0.20;;;18.30;99.90;;;;;;6180366;23;20340;-73
2022/07/06 10:10:41;;;;;;;0.10;0.10;;;18.30;99.90;;;;;;6207412;23;20008;-73
2022/07/06 10:13:08;;;;;;;0.17;0.17;;;18.30;99.90;;;;;;6180652;23;20012;-73
2022/07/06 10:15:36;;;;;;;0.20;0.20;;;18.30;99.90;;;;;;6182129;23;20009;-74
2022/07/06 10:18:07;;;;;;;0.20;0.20;;;18.40;99.90;;;;;;6208230;23;20091;-74
2022/07/06 10:20:36;;;;;;;0.20;0.20;;;18.40;99.90;;;;;;6182720;23;20128;-74
2022/07/06 10:23:05;;;;;;;0.10;0.10;;;18.50;99.90;;;;;;6208968;23;20021;-74
2022/07/06 10:25:34;;;;;;;0.20;0.20;;;18.60;99.90;;;;;;6208385;23;20016;-74
2022/07/06 10:28:00;;;;;;;0.10;0.10;;;18.60;99.90;;;;;;6180897;23;20021;-73
2022/07/06 10:30:28;;;;;;;0.10;0.10;;;18.80;99.90;;;;;;6181763;23;20017;-73
2022/07/06 10:32:55;;;;;;;0.10;0.10;;;18.90;99.90;;;;;;6208335;23;20119;-73
2022/07/06 10:35:22;;;;;;;0.20;0.20;;;18.80;99.90;;;;;;6208048;23;20016;-73
2022/07/06 10:38:04;;;;;;;0.10;0.10;;;18.90;99.90;;;;;;6180371;23;20021;-74
2022/07/06 10:43:21;;;;;;;0.20;0.20;;;18.90;99.90;;;;;;6180067;23;20024;-76
2022/07/06 10:45:47;;;;;;;0.10;0.10;;;18.90;99.90;;;;;;6181928;23;20074;-74
2022/07/06 10:48:17;;;;;;;0.17;0.17;;;18.90;99.90;;;;;;6181042;23;20029;-74
2022/07/06 10:50:51;;;;;;;0.20;0.20;;;19.00;99.90;;;;;;6209334;23;20377;-74
2022/07/06 10:53:25;;;;;;;0.20;0.20;;;19.10;99.90;;;;;;6209034;23;20519;-74
2022/07/06 10:55:55;;;;;;;0.10;0.10;;;19.20;99.90;;;;;;6180624;23;20017;-74
2022/07/06 10:58:42;;;;;;;0.20;0.20;;;19.30;99.90;;;;;;6210543;23;20107;-73
2022/07/06 11:01:10;;;;;;;0.20;0.20;;;19.40;99.90;;;;;;6209230;23;20180;-73
2022/07/06 11:03:47;;;;;;;0.20;0.20;;;19.40;99.90;;;;;;6184230;23;20074;-73
2022/07/06 11:06:21;;;;;;;0.20;0.20;;;19.40;99.90;;;;;;6210813;23;20047;-74
2022/07/06 11:09:00;;;;;;;0.17;0.17;;;19.40;99.90;;;;;;6210038;23;20012;-73
2022/07/06 11:11:31;;;;;;;0.20;0.20;;;19.40;99.90;;;;;;6184993;23;20318;-74
2022/07/06 11:14:13;;;;;;;0.20;0.20;;;19.30;99.90;;;;;;6183066;23;20028;-74
2022/07/06 11:16:51;;;;;;;0.10;0.10;;;19.30;99.90;;;;;;6210731;23;20020;-73
2022/07/06 11:19:19;;;;;;;0.20;0.20;;;19.30;99.90;;;;;;6183811;23;20528;-73
2022/07/06 11:21:52;;;;;;;0.20;0.20;;;19.40;99.90;;;;;;6182924;23;20032;-73
2022/07/06 11:24:26;;;;;;;0.20;0.20;;;19.50;99.80;;;;;;6210939;23;20027;-72
2022/07/06 11:26:53;;;;;;;0.20;0.20;;;19.70;99.90;;;;;;6182805;23;20013;-74
2022/07/06 11:29:23;;;;;;;0.20;0.20;;;19.80;99.90;;;;;;6182939;23;20044;-73
2022/07/06 11:31:55;;;;;;;0.20;0.20;;;19.80;99.50;;;;;;6182803;23;20086;-73
2022/07/06 11:34:23;;;;;;;0.10;0.10;;;19.80;99.60;;;;;;6183401;23;20096;-74
2022/07/06 11:36:49;;;;;;;0.20;0.20;;;19.80;99.50;;;;;;6209735;23;20099;-74
2022/07/06 11:39:15;;;;;;;0.10;0.10;;;19.80;99.70;;;;;;6183834;23;20139;-74
2022/07/06 11:41:42;;;;;;;0.20;0.20;;;20.00;99.00;;;;;;6210902;23;20024;-74
2022/07/06 11:44:07;;;;;;;0.20;0.20;;;20.10;98.60;;;;;;6182420;23;20017;-74
2022/07/06 11:46:34;;;;;;;0.10;0.10;;;20.20;98.60;;;;;;6210840;23;20028;-74
2022/07/06 11:49:08;;;;;;;0.20;0.20;;;20.30;98.50;;;;;;6209652;23;20083;-74
2022/07/06 11:51:39;;;;;;;0.20;0.20;;;20.30;99.00;;;;;;6209859;23;20016;-75
2022/07/06 11:54:16;;;;;;;0.20;0.20;;;20.40;98.70;;;;;;6182689;23;20097;-75
2022/07/06 11:57:00;;;;;;;0.20;0.20;;;20.60;98.20;;;;;;6182085;23;20024;-75
2022/07/06 11:59:28;;;;;;;0.20;0.20;;;20.60;98.40;;;;;;6182714;23;20021;-74
2022/07/06 12:02:06;;;;;;;0.10;0.10;;;20.60;97.80;;;;;;6208134;23;20013;-74
2022/07/06 12:04:34;;;;;;;0.20;0.20;;;20.50;97.50;;;;;;6180934;23;20016;-74
2022/07/06 12:07:08;;;;;;;0.20;0.20;;;20.40;97.20;;;;;;6180459;23;20400;-74
2022/07/06 12:09:35;;;;;;;0.20;0.20;;;20.40;97.50;;;;;;6207558;23;20023;-75
2022/07/06 12:12:02;;;;;;;0.10;0.10;;;20.40;98.10;;;;;;6207714;23;20020;-75
2022/07/06 12:14:29;;;;;;;0.10;0.10;;;20.40;98.40;;;;;;6182557;23;20027;-74
2022/07/06 12:16:55;;;;;;;0.20;0.20;;;20.40;98.00;;;;;;6180099;23;20096;-76
2022/07/06 12:19:22;;;;;;;0.10;0.10;;;20.50;97.00;;;;;;6208748;23;20040;-75
2022/07/06 12:21:50;;;;;;;0.10;0.10;;;20.40;96.50;;;;;;6208982;23;20016;-76
2022/07/06 12:24:27;;;;;;;0.17;0.17;;;20.50;96.90;;;;;;6206624;23;20024;-74
2022/07/06 12:26:54;;;;;;;0.20;0.20;;;20.50;96.60;;;;;;6208563;23;20021;-74
2022/07/06 12:29:22;;;;;;;0.20;0.20;;;20.40;97.20;;;;;;6210140;23;20056;-74
2022/07/06 12:31:52;;;;;;;0.20;0.20;;;20.50;97.10;;;;;;6207412;23;20015;-75
2022/07/06 12:34:26;;;;;;;0.20;0.20;;;20.50;97.30;;;;;;6182554;23;20462;-74
2022/07/06 12:36:56;;;;;;;0.20;0.20;;;20.50;96.50;;;;;;6181216;23;20621;-75
2022/07/06 12:39:23;;;;;;;0.10;0.10;;;20.60;97.00;;;;;;6180895;23;20432;-75
2022/07/06 12:41:56;;;;;;;0.20;0.20;;;20.50;97.50;;;;;;6210082;23;20436;-75
2022/07/06 12:44:24;;;;;;;0.10;0.10;;;20.50;97.20;;;;;;6208479;23;20016;-76
2022/07/06 12:47:10;;;;;;;0.10;0.10;;;20.60;97.10;;;;;;6180664;23;20074;-76
2022/07/06 12:49:37;;;;;;;0.20;0.20;;;20.80;97.00;;;;;;6182245;23;20052;-75
2022/07/06 12:52:09;;;;;;;0.15;0.15;;;20.80;97.10;;;;;;6209977;23;20159;-75
2022/07/06 12:54:44;;;;;;;0.20;0.20;;;20.80;97.20;;;;;;6209852;23;20401;-76